Time,TemperatureF,DewpointF,PressureIn,WindDirection,WindDirectionDegrees,WindSpeedMPH,WindSpeedGustMPH,Humidity,HourlyPrecipIn,Conditions,Clouds,dailyrainin,SolarRadiationWatts/m^2,SoftwareType,DateUTC
2013-05-24 00:00:00,69.4,69.1,29.94,East,90,0.0,0.0,99,0.00,CLR,,0.00,0.0,WeatherDisplay:10.37,2013-05-23 14:00:00,
2013-05-24 00:05:00,69.4,69.1,29.94,East,90,0.0,0.0,99,0.00,CLR,,0.00,0.0,WeatherDisplay:10.37,2013-05-23 14:05:00,
2013-05-24 00:15:00,69.4,69.1,29.94,NNE,20,0.0,0.0,99,0.00,CLR,,0.00,0.0,WeatherDisplay:10.37,2013-05-23 14:15:00,
2013-05-24 00:20:00,69.4,69.1,29.94,North,0,0.0,0.0,99,0.00,CLR,,0.00,0.0,WeatherDisplay:10.37,2013-05-23 14:20:00,
2013-05-24 00:25:00,69.6,69.3,29.94,North,0,0.0,0.0,99,0.00,CLR,,0.00,0.0,WeatherDisplay:10.37,2013-05-23 14:25:00,
2013-05-24 00:30:00,69.8,69.2,29.94,North,0,0.0,0.0,98,0.00,CLR,,0.00,0.0,WeatherDisplay:10.37,2013-05-23 14:30:00,
2013-05-24 00:35:00,69.8,69.2,29.94,NNE,22,0.0,0.0,98,0.00,CLR,,0.00,0.0,WeatherDisplay:10.37,2013-05-23 14:35:00,
2013-05-24 00:40:00,69.6,69.3,29.94,NE,44,0.0,0.0,99,0.00,CLR,,0.00,0.0,WeatherDisplay:10.37,2013-05-23 14:40:00,
2013-05-24 00:45:00,69.6,69.3,29.94,NNE,27,0.0,0.0,99,0.00,CLR,,0.00,0.0,WeatherDisplay:10.37,2013-05-23 14:45:00,
2013-05-24 00:50:00,69.8,69.2,29.93,North,4,0.0,0.0,98,0.00,CLR,,0.00,0.0,WeatherDisplay:10.37,2013-05-23 14:50:00,
2013-05-24 00:55:00,69.8,69.2,29.94,North,0,0.0,0.0,98,0.00,CLR,,0.00,0.0,WeatherDisplay:10.37,2013-05-23 14:55:00,
2013-05-24 01:00:00,69.8,69.2,29.93,North,0,0.0,0.0,98,0.00,CLR,,0.00,0.0,WeatherDisplay:10.37,2013-05-23 15:00:00,
2013-05-24 01:05:00,69.8,69.2,29.93,North,0,0.0,0.0,98,0.00,CLR,,0.00,0.0,WeatherDisplay:10.37,2013-05-23 15:05:00,
2013-05-24 01:10:00,69.8,69.2,29.93,North,0,0.0,0.0,98,0.00,CLR,,0.00,0.0,WeatherDisplay:10.37,2013-05-23 15:10:00,
2013-05-24 01:15:00,69.8,69.2,29.93,North,0,0.0,0.0,98,0.00,CLR,,0.00,0.0,WeatherDisplay:10.37,2013-05-23 15:15:00,
2013-05-24 01:20:00,69.8,69.2,29.93,North,0,0.0,0.0,98,0.00,CLR,,0.00,0.0,WeatherDisplay:10.37,2013-05-23 15:20:00,
2013-05-24 01:25:00,70.0,69.4,29.93,North,0,0.0,0.0,98,0.00,CLR,,0.00,0.0,WeatherDisplay:10.37,2013-05-23 15:25:00,
2013-05-24 01:30:00,70.0,69.4,29.93,North,0,0.0,0.0,98,0.00,CLR,,0.00,0.0,WeatherDisplay:10.37,2013-05-23 15:30:00,
2013-05-24 01:35:00,70.0,69.4,29.93,North,0,0.0,0.0,98,0.00,CLR,,0.00,0.0,WeatherDisplay:10.37,2013-05-23 15:35:00,
2013-05-24 01:40:00,70.0,69.4,29.93,North,0,0.0,0.0,98,0.00,CLR,,0.00,0.0,WeatherDisplay:10.37,2013-05-23 15:40:00,
2013-05-24 01:45:00,70.0,69.4,29.93,North,0,0.0,0.0,98,0.00,CLR,,0.00,0.0,WeatherDisplay:10.37,2013-05-23 15:45:00,
2013-05-24 01:50:00,70.0,69.4,29.92,North,0,0.0,0.0,98,0.00,CLR,,0.00,0.0,WeatherDisplay:10.37,2013-05-23 15:50:00,
2013-05-24 01:55:00,70.0,69.4,29.92,North,0,0.0,0.0,98,0.00,CLR,,0.00,0.0,WeatherDisplay:10.37,2013-05-23 15:55:00,
2013-05-24 02:00:00,70.0,69.4,29.92,North,0,0.0,0.0,98,0.00,CLR,,0.00,0.0,WeatherDisplay:10.37,2013-05-23 16:00:00,
2013-05-24 02:05:00,70.0,69.4,29.92,North,0,0.0,0.0,98,0.00,CLR,,0.00,0.0,WeatherDisplay:10.37,2013-05-23 16:05:00,
2013-05-24 02:15:00,70.0,69.4,29.92,NNE,23,0.0,0.0,98,0.00,CLR,,0.00,0.0,WeatherDisplay:10.37,2013-05-23 16:15:00,
2013-05-24 02:20:00,70.0,69.4,29.92,ENE,75,1.0,3.0,98,0.00,CLR,,0.00,0.0,WeatherDisplay:10.37,2013-05-23 16:20:00,
2013-05-24 02:25:00,69.8,69.3,29.92,East,90,0.0,3.0,98,0.00,CLR,,0.00,0.0,WeatherDisplay:10.37,2013-05-23 16:25:00,
2013-05-24 02:30:00,69.8,69.2,29.92,East,90,0.0,0.0,98,0.00,CLR,,0.00,0.0,WeatherDisplay:10.37,2013-05-23 16:30:00,
2013-05-24 02:35:00,69.8,69.2,29.92,ENE,68,1.0,2.0,98,0.00,CLR,,0.00,0.0,WeatherDisplay:10.37,2013-05-23 16:35:00,
2013-05-24 02:40:00,69.6,69.3,29.92,NNE,12,0.0,1.0,99,0.00,CLR,,0.00,0.0,WeatherDisplay:10.37,2013-05-23 16:40:00,
2013-05-24 02:45:00,69.6,69.3,29.92,North,0,0.0,0.0,99,0.00,CLR,,0.00,0.0,WeatherDisplay:10.37,2013-05-23 16:45:00,
2013-05-24 02:50:00,69.6,69.3,29.92,North,11,1.0,2.0,99,0.00,CLR,,0.00,0.0,WeatherDisplay:10.37,2013-05-23 16:50:00,
2013-05-24 02:55:00,69.4,69.1,29.92,NNE,23,1.0,3.0,99,0.00,CLR,,0.00,0.0,WeatherDisplay:10.37,2013-05-23 16:55:00,
2013-05-24 03:00:00,69.4,69.1,29.92,NNE,12,1.0,3.0,99,0.00,CLR,,0.00,0.0,WeatherDisplay:10.37,2013-05-23 17:00:00,
2013-05-24 03:05:00,69.4,69.1,29.92,North,0,1.0,3.0,99,0.00,CLR,,0.00,0.0,WeatherDisplay:10.37,2013-05-23 17:05:00,
2013-05-24 03:10:00,69.3,69.0,29.92,North,0,0.0,2.0,99,0.00,CLR,,0.00,0.0,WeatherDisplay:10.37,2013-05-23 17:10:00,
2013-05-24 03:15:00,69.2,68.9,29.92,North,0,0.0,0.0,99,0.00,CLR,,0.00,0.0,WeatherDisplay:10.37,2013-05-23 17:15:00,
2013-05-24 03:20:00,69.1,68.8,29.92,North,0,0.0,0.0,99,0.00,CLR,,0.00,0.0,WeatherDisplay:10.37,2013-05-23 17:20:00,
2013-05-24 03:25:00,69.1,68.8,29.91,North,0,0.0,1.0,99,0.00,CLR,,0.00,0.0,WeatherDisplay:10.37,2013-05-23 17:25:00,
2013-05-24 03:30:00,68.7,68.4,29.92,North,0,0.0,0.0,99,0.00,CLR,,0.00,0.0,WeatherDisplay:10.37,2013-05-23 17:30:00,
2013-05-24 03:35:00,68.7,68.4,29.92,North,0,0.0,1.0,99,0.00,CLR,,0.00,0.0,WeatherDisplay:10.37,2013-05-23 17:35:00,
2013-05-24 03:45:00,68.4,68.1,29.92,North,0,0.0,0.0,99,0.00,CLR,,0.00,0.0,WeatherDisplay:10.37,2013-05-23 17:45:00,
2013-05-24 03:50:00,68.4,68.1,29.92,North,0,0.0,0.0,99,0.00,CLR,,0.00,0.0,WeatherDisplay:10.37,2013-05-23 17:50:00,
2013-05-24 03:55:00,68.4,68.1,29.92,North,0,0.0,1.0,99,0.00,CLR,,0.00,0.0,WeatherDisplay:10.37,2013-05-23 17:55:00,
2013-05-24 04:00:00,68.5,68.2,29.92,North,0,0.0,1.0,99,0.00,CLR,,0.00,0.0,WeatherDisplay:10.37,2013-05-23 18:00:00,
2013-05-24 04:05:00,68.5,68.2,29.92,North,0,0.0,0.0,99,0.00,CLR,,0.00,0.0,WeatherDisplay:10.37,2013-05-23 18:05:00,
2013-05-24 04:10:00,68.5,68.2,29.93,NNW,348,0.0,0.0,99,0.00,CLR,,0.00,0.0,WeatherDisplay:10.37,2013-05-23 18:10:00,
2013-05-24 04:15:00,68.7,68.4,29.93,NW,325,0.0,0.0,99,0.00,CLR,,0.00,0.0,WeatherDisplay:10.37,2013-05-23 18:15:00,
2013-05-24 04:20:00,68.9,68.6,29.93,NW,315,0.0,0.0,99,0.00,CLR,,0.00,0.0,WeatherDisplay:10.37,2013-05-23 18:20:00,
2013-05-24 04:25:00,69.0,68.7,29.93,NW,315,0.0,0.0,99,0.00,CLR,,0.00,0.0,WeatherDisplay:10.37,2013-05-23 18:25:00,
2013-05-24 04:30:00,69.1,68.8,29.93,NW,315,0.0,0.0,99,0.00,CLR,,0.00,0.0,WeatherDisplay:10.37,2013-05-23 18:30:00,
2013-05-24 04:35:00,69.1,68.8,29.93,NW,315,0.0,3.0,99,0.00,CLR,,0.00,0.0,WeatherDisplay:10.37,2013-05-23 18:35:00,
2013-05-24 04:40:00,69.1,68.8,29.93,NW,315,1.0,3.0,99,0.00,CLR,,0.00,0.0,WeatherDisplay:10.37,2013-05-23 18:40:00,
2013-05-24 04:50:00,69.1,68.8,29.93,NNW,329,1.0,3.0,99,0.00,CLR,,0.00,0.0,WeatherDisplay:10.37,2013-05-23 18:50:00,
2013-05-24 04:55:00,69.1,68.8,29.93,North,353,1.0,2.0,99,0.00,CLR,,0.00,0.0,WeatherDisplay:10.37,2013-05-23 18:55:00,
2013-05-24 05:00:00,68.9,68.6,29.93,North,0,1.0,2.0,99,0.00,CLR,,0.00,0.0,WeatherDisplay:10.37,2013-05-23 19:00:00,
2013-05-24 05:05:00,68.7,68.4,29.93,North,0,1.0,3.0,99,0.00,CLR,,0.00,0.0,WeatherDisplay:10.37,2013-05-23 19:05:00,
2013-05-24 05:10:00,68.7,68.4,29.93,NW,314,0.0,2.0,99,0.00,CLR,,0.00,0.0,WeatherDisplay:10.37,2013-05-23 19:10:00,
2013-05-24 05:15:00,68.5,68.2,29.94,West,270,0.0,2.0,99,0.00,CLR,,0.00,0.0,WeatherDisplay:10.37,2013-05-23 19:15:00,
2013-05-24 05:20:00,68.4,68.1,29.94,West,270,0.0,2.0,99,0.00,CLR,,0.00,0.0,WeatherDisplay:10.37,2013-05-23 19:20:00,
2013-05-24 05:25:00,68.1,67.8,29.94,West,270,0.0,2.0,99,0.00,CLR,,0.00,0.0,WeatherDisplay:10.37,2013-05-23 19:25:00,
2013-05-24 05:30:00,67.7,67.4,29.94,West,270,0.0,1.0,99,0.00,CLR,,0.00,0.0,WeatherDisplay:10.37,2013-05-23 19:30:00,
2013-05-24 05:35:00,66.9,66.6,29.94,West,270,0.0,2.0,99,0.00,CLR,,0.00,0.0,WeatherDisplay:10.37,2013-05-23 19:35:00,
2013-05-24 05:40:00,66.4,66.1,29.94,West,270,0.0,1.0,99,0.00,CLR,,0.00,0.0,WeatherDisplay:10.37,2013-05-23 19:40:00,
2013-05-24 05:45:00,66.2,65.9,29.94,West,270,0.0,0.0,99,0.00,CLR,,0.00,0.0,WeatherDisplay:10.37,2013-05-23 19:45:00,
2013-05-24 05:50:00,66.2,65.9,29.95,West,270,0.0,0.0,99,0.00,CLR,,0.00,0.0,WeatherDisplay:10.37,2013-05-23 19:50:00,
2013-05-24 05:55:00,66.4,66.1,29.95,West,270,0.0,0.0,99,0.00,CLR,,0.00,0.0,WeatherDisplay:10.37,2013-05-23 19:55:00,
2013-05-24 06:05:00,66.4,66.1,29.95,West,270,0.0,2.0,99,0.00,CLR,,0.00,0.0,WeatherDisplay:10.37,2013-05-23 20:05:00,
2013-05-24 06:10:00,66.4,66.1,29.95,West,270,0.0,2.0,99,0.00,CLR,,0.00,0.0,WeatherDisplay:10.37,2013-05-23 20:10:00,
2013-05-24 06:15:00,66.2,65.9,29.95,West,270,0.0,1.0,99,0.00,CLR,,0.00,0.0,WeatherDisplay:10.37,2013-05-23 20:15:00,
2013-05-24 06:20:00,66.2,65.9,29.95,West,270,0.0,2.0,99,0.00,CLR,,0.00,0.0,WeatherDisplay:10.37,2013-05-23 20:20:00,
2013-05-24 06:25:00,65.8,65.6,29.95,West,270,0.0,2.0,99,0.00,CLR,,0.00,0.0,WeatherDisplay:10.37,2013-05-23 20:25:00,
2013-05-24 06:30:00,65.7,65.4,29.96,West,270,0.0,2.0,99,0.00,CLR,,0.00,0.0,WeatherDisplay:10.37,2013-05-23 20:30:00,
2013-05-24 06:35:00,65.5,65.2,29.96,West,270,0.0,2.0,99,0.00,CLR,,0.00,0.0,WeatherDisplay:10.37,2013-05-23 20:35:00,
2013-05-24 06:40:00,65.3,65.0,29.97,West,270,0.0,1.0,99,0.00,CLR,,0.00,0.0,WeatherDisplay:10.37,2013-05-23 20:40:00,
2013-05-24 06:45:00,65.1,64.8,29.97,West,270,0.0,1.0,99,0.00,CLR,,0.00,3.8,WeatherDisplay:10.37,2013-05-23 20:45:00,
2013-05-24 06:50:00,65.1,64.8,29.97,West,270,0.0,1.0,99,0.00,BKN,,0.00,10.4,WeatherDisplay:10.37,2013-05-23 20:50:00,
2013-05-24 06:55:00,65.1,64.8,29.97,West,270,0.0,2.0,99,0.00,BKN,,0.00,14.0,WeatherDisplay:10.37,2013-05-23 20:55:00,
2013-05-24 07:00:00,65.1,64.8,29.97,West,270,0.0,2.0,99,0.00,BKN,,0.00,19.9,WeatherDisplay:10.37,2013-05-23 21:00:00,
2013-05-24 07:05:00,64.8,64.5,29.97,WSW,238,1.0,3.0,99,0.00,BKN,,0.00,24.2,WeatherDisplay:10.37,2013-05-23 21:05:00,
2013-05-24 07:10:00,64.3,63.8,29.97,SW,223,2.0,5.0,98,0.00,BKN,,0.00,25.4,WeatherDisplay:10.37,2013-05-23 21:10:00,
2013-05-24 07:15:00,64.2,63.4,29.97,WSW,250,1.0,5.0,97,0.00,BKN,,0.00,22.6,WeatherDisplay:10.37,2013-05-23 21:15:00,
2013-05-24 07:20:00,64.2,63.4,29.97,West,278,2.0,6.0,97,0.00,BKN,,0.00,25.1,WeatherDisplay:10.37,2013-05-23 21:20:00,
2013-05-24 07:25:00,64.4,64.1,29.98,West,269,2.0,6.0,99,0.00,BKN,,0.00,23.4,WeatherDisplay:10.37,2013-05-23 21:25:00,
2013-05-24 07:30:00,64.6,64.3,29.98,WSW,245,1.0,5.0,99,0.00,BKN,,0.00,26.3,WeatherDisplay:10.37,2013-05-23 21:30:00,
2013-05-24 07:35:00,64.9,64.4,29.99,WSW,258,0.0,3.0,98,0.00,SCT,,0.00,29.1,WeatherDisplay:10.37,2013-05-23 21:35:00,
2013-05-24 07:40:00,65.1,64.2,29.98,West,270,0.0,2.0,97,0.00,CLR,,0.00,37.0,WeatherDisplay:10.37,2013-05-23 21:40:00,
2013-05-24 07:45:00,65.3,63.8,29.98,WSW,249,2.0,4.0,95,0.00,CLR,,0.00,23.0,WeatherDisplay:10.37,2013-05-23 21:45:00,
2013-05-24 07:50:00,65.5,63.4,29.99,West,264,1.0,4.0,93,0.00,CLR,,0.00,9.0,WeatherDisplay:10.37,2013-05-23 21:50:00,
2013-05-24 07:55:00,65.7,63.3,29.99,WNW,282,1.0,3.0,92,0.00,CLR,,0.00,29.7,WeatherDisplay:10.37,2013-05-23 21:55:00,
2013-05-24 08:00:00,65.8,63.1,29.99,WSW,241,1.0,3.0,91,0.00,OVC,,0.00,30.2,WeatherDisplay:10.37,2013-05-23 22:00:00,
2013-05-24 08:05:00,65.8,63.1,29.99,WSW,247,2.0,5.0,91,0.00,OVC,,0.00,33.3,WeatherDisplay:10.37,2013-05-23 22:05:00,
2013-05-24 08:10:00,65.8,62.8,30.00,WSW,256,1.0,5.0,90,0.00,OVC,,0.00,43.5,WeatherDisplay:10.37,2013-05-23 22:10:00,
2013-05-24 08:15:00,66.0,63.0,30.00,West,271,1.0,3.0,90,0.00,OVC,,0.00,52.0,WeatherDisplay:10.37,2013-05-23 22:15:00,
2013-05-24 08:20:00,66.4,63.0,30.00,WSW,252,3.0,5.0,89,0.00,OVC,,0.00,83.4,WeatherDisplay:10.37,2013-05-23 22:20:00,
2013-05-24 08:25:00,66.8,63.5,30.00,WSW,240,1.0,3.0,89,0.00,OVC,,0.00,131.2,WeatherDisplay:10.37,2013-05-23 22:25:00,
2013-05-24 08:30:00,67.4,64.1,30.00,WSW,238,2.0,4.0,89,0.00,OVC,,0.00,137.7,WeatherDisplay:10.37,2013-05-23 22:30:00,
2013-05-24 08:35:00,67.8,64.1,30.00,WSW,255,1.0,4.0,88,0.00,OVC,,0.00,121.0,WeatherDisplay:10.37,2013-05-23 22:35:00,
2013-05-24 08:40:00,68.2,64.2,30.00,WSW,242,1.0,3.0,87,0.00,OVC,,0.00,154.5,WeatherDisplay:10.37,2013-05-23 22:40:00,
2013-05-24 08:45:00,68.8,64.4,30.01,SW,234,1.0,3.0,86,0.00,OVC,,0.00,325.1,WeatherDisplay:10.37,2013-05-23 22:45:00,
2013-05-24 08:50:00,70.1,64.6,30.01,WSW,248,2.0,5.0,83,0.00,OVC,,0.00,423.4,WeatherDisplay:10.37,2013-05-23 22:50:00,
2013-05-24 08:55:00,71.5,64.6,30.00,SW,231,3.0,6.0,79,0.00,OVC,,0.00,583.8,WeatherDisplay:10.37,2013-05-23 22:55:00,
2013-05-24 09:00:00,72.7,64.7,30.00,SW,231,3.0,7.0,76,0.00,OVC,,0.00,586.6,WeatherDisplay:10.37,2013-05-23 23:00:00,
2013-05-24 09:05:00,73.0,64.3,30.01,SW,231,2.0,7.0,74,0.00,OVC,,0.00,380.9,WeatherDisplay:10.37,2013-05-23 23:05:00,
2013-05-24 09:10:00,72.3,63.6,30.00,SW,219,1.0,6.0,74,0.00,OVC,,0.00,449.9,WeatherDisplay:10.37,2013-05-23 23:10:00,
2013-05-24 09:15:00,72.4,63.3,30.01,SW,216,2.0,6.0,73,0.00,OVC,,0.00,411.6,WeatherDisplay:10.37,2013-05-23 23:15:00,
2013-05-24 09:20:00,72.1,63.0,30.01,SSW,200,3.0,7.0,73,0.00,OVC,,0.00,374.1,WeatherDisplay:10.37,2013-05-23 23:20:00,
2013-05-24 09:25:00,71.4,62.7,30.01,South,180,1.0,8.0,74,0.00,OVC,,0.00,290.3,WeatherDisplay:10.37,2013-05-23 23:25:00,
2013-05-24 09:30:00,72.1,63.4,30.01,South,177,2.0,5.0,74,0.00,OVC,,0.00,321.2,WeatherDisplay:10.37,2013-05-23 23:30:00,
2013-05-24 09:35:00,72.5,63.4,30.01,South,172,2.0,5.0,73,0.00,OVC,,0.00,472.4,WeatherDisplay:10.37,2013-05-23 23:35:00,
2013-05-24 09:40:00,72.8,63.6,30.01,South,181,2.0,4.0,73,0.00,OVC,,0.00,425.1,WeatherDisplay:10.37,2013-05-23 23:40:00,
2013-05-24 09:45:00,73.2,64.0,30.01,SW,218,2.0,6.0,73,0.00,OVC,,0.00,322.3,WeatherDisplay:10.37,2013-05-23 23:45:00,
2013-05-24 09:50:00,73.2,63.6,30.01,SW,218,6.0,8.0,72,0.00,OVC,,0.00,579.2,WeatherDisplay:10.37,2013-05-23 23:50:00,
2013-05-24 09:55:00,73.0,63.5,30.01,South,191,1.0,8.0,72,0.00,OVC,,0.00,385.0,WeatherDisplay:10.37,2013-05-23 23:55:00,
2013-05-24 10:00:00,73.2,63.6,30.02,South,178,3.0,6.0,72,0.00,OVC,,0.00,216.1,WeatherDisplay:10.37,2013-05-24 00:00:00,
2013-05-24 10:05:00,72.0,62.9,30.01,South,173,3.0,7.0,73,0.00,OVC,,0.00,289.0,WeatherDisplay:10.37,2013-05-24 00:05:00,
2013-05-24 10:10:00,72.0,63.2,30.01,South,170,5.0,6.0,74,0.00,OVC,,0.00,362.2,WeatherDisplay:10.37,2013-05-24 00:10:00,
2013-05-24 10:15:00,72.2,63.8,30.01,SSE,164,7.0,10.0,75,0.00,OVC,,0.00,372.6,WeatherDisplay:10.37,2013-05-24 00:15:00,
2013-05-24 10:20:00,71.8,63.4,30.01,South,180,5.0,9.0,75,0.00,OVC,,0.00,280.0,WeatherDisplay:10.37,2013-05-24 00:20:00,
2013-05-24 10:25:00,71.9,63.1,30.01,South,180,3.0,8.0,74,0.00,OVC,,0.00,236.1,WeatherDisplay:10.37,2013-05-24 00:25:00,
2013-05-24 10:30:00,72.1,64.1,30.01,SSE,156,5.0,6.0,76,0.00,OVC,,0.00,164.6,WeatherDisplay:10.37,2013-05-24 00:30:00,
2013-05-24 10:35:00,71.6,63.3,30.00,ESE,120,2.0,8.0,75,0.00,OVC,,0.00,113.4,WeatherDisplay:10.37,2013-05-24 00:35:00,
2013-05-24 10:40:00,71.4,63.8,30.00,ESE,103,1.0,4.0,77,0.00,OVC,,0.00,101.9,WeatherDisplay:10.37,2013-05-24 00:40:00,
2013-05-24 10:45:00,71.4,64.2,30.00,East,90,2.0,3.0,78,0.00,OVC,,0.00,119.1,WeatherDisplay:10.37,2013-05-24 00:45:00,
2013-05-24 10:50:00,71.6,64.0,30.00,East,90,1.0,4.0,77,0.00,OVC,,0.00,150.9,WeatherDisplay:10.37,2013-05-24 00:50:00,
2013-05-24 10:55:00,71.4,63.8,30.00,ESE,114,5.0,8.0,77,0.00,OVC,,0.00,176.7,WeatherDisplay:10.37,2013-05-24 00:55:00,
2013-05-24 11:00:00,71.2,63.7,30.00,SE,138,5.0,8.0,77,0.00,OVC,,0.00,199.6,WeatherDisplay:10.37,2013-05-24 01:00:00,
2013-05-24 11:05:00,71.3,63.7,30.00,SSE,156,2.0,7.0,77,0.00,OVC,,0.00,174.2,WeatherDisplay:10.37,2013-05-24 01:05:00,
2013-05-24 11:10:00,72.0,64.4,30.00,SSE,148,1.0,4.0,77,0.00,OVC,,0.00,247.6,WeatherDisplay:10.37,2013-05-24 01:10:00,
2013-05-24 11:15:00,72.3,63.9,30.00,SE,135,2.0,5.0,75,0.00,OVC,,0.00,199.4,WeatherDisplay:10.37,2013-05-24 01:15:00,
2013-05-24 11:20:00,72.5,64.1,30.00,SE,135,2.0,4.0,75,0.00,OVC,,0.00,210.6,WeatherDisplay:10.37,2013-05-24 01:20:00,
2013-05-24 11:25:00,72.5,63.7,30.00,SE,135,2.0,4.0,74,0.00,OVC,,0.00,217.8,WeatherDisplay:10.37,2013-05-24 01:25:00,
2013-05-24 11:30:00,72.7,63.9,30.00,SE,135,1.0,3.0,74,0.00,OVC,,0.00,250.7,WeatherDisplay:10.37,2013-05-24 01:30:00,
2013-05-24 11:35:00,73.4,65.0,30.00,SE,135,2.0,4.0,75,0.00,OVC,,0.00,430.5,WeatherDisplay:10.37,2013-05-24 01:35:00,
2013-05-24 11:40:00,74.3,65.4,30.00,SE,135,0.0,4.0,74,0.00,OVC,,0.00,412.1,WeatherDisplay:10.37,2013-05-24 01:40:00,
2013-05-24 11:45:00,76.0,65.9,29.99,SE,135,1.0,3.0,71,0.00,OVC,,0.00,506.6,WeatherDisplay:10.37,2013-05-24 01:45:00,
2013-05-24 11:50:00,77.1,65.3,29.99,SE,135,3.0,6.0,67,0.00,OVC,,0.00,601.7,WeatherDisplay:10.37,2013-05-24 01:50:00,
2013-05-24 11:55:00,75.7,64.8,29.99,SE,135,2.0,6.0,69,0.00,OVC,,0.00,541.6,WeatherDisplay:10.37,2013-05-24 01:55:00,
2013-05-24 12:00:00,76.9,65.5,29.99,SE,135,0.0,4.0,68,0.00,OVC,,0.00,439.3,WeatherDisplay:10.37,2013-05-24 02:00:00,
2013-05-24 12:05:00,78.1,66.6,29.99,SE,135,1.0,3.0,68,0.00,OVC,,0.00,565.4,WeatherDisplay:10.37,2013-05-24 02:05:00,
2013-05-24 12:10:00,77.5,65.7,29.99,East,86,1.0,5.0,67,0.00,OVC,,0.00,635.8,WeatherDisplay:10.37,2013-05-24 02:10:00,
2013-05-24 12:15:00,78.2,66.8,29.99,ENE,68,0.0,2.0,68,0.00,OVC,,0.00,630.6,WeatherDisplay:10.37,2013-05-24 02:15:00,
2013-05-24 12:20:00,79.6,66.8,29.98,ENE,68,1.0,3.0,65,0.00,OVC,,0.00,552.3,WeatherDisplay:10.37,2013-05-24 02:20:00,
2013-05-24 12:25:00,80.0,66.7,29.98,ENE,68,2.0,4.0,64,0.00,OVC,,0.00,1126.4,WeatherDisplay:10.37,2013-05-24 02:25:00,
2013-05-24 12:30:00,81.1,66.9,29.98,ENE,68,2.0,5.0,62,0.00,OVC,,0.00,656.6,WeatherDisplay:10.37,2013-05-24 02:30:00,
2013-05-24 12:35:00,80.3,67.0,29.98,ENE,68,1.0,5.0,64,0.00,OVC,,0.00,837.3,WeatherDisplay:10.37,2013-05-24 02:35:00,
2013-05-24 12:40:00,80.4,66.7,29.97,ENE,67,3.0,4.0,63,0.00,OVC,,0.00,673.9,WeatherDisplay:10.37,2013-05-24 02:40:00,
2013-05-24 12:45:00,78.6,65.8,29.97,NE,49,5.0,7.0,65,0.00,OVC,,0.00,617.4,WeatherDisplay:10.37,2013-05-24 02:45:00,
2013-05-24 12:50:00,76.7,66.6,29.97,NE,45,3.0,8.0,71,0.00,OVC,,0.00,488.9,WeatherDisplay:10.37,2013-05-24 02:50:00,
2013-05-24 12:55:00,76.8,67.1,29.97,NNE,33,6.0,7.0,72,0.00,OVC,,0.00,501.9,WeatherDisplay:10.37,2013-05-24 02:55:00,
2013-05-24 13:05:00,76.3,66.6,29.96,North,352,6.0,8.0,72,0.00,OVC,,0.00,628.3,WeatherDisplay:10.37,2013-05-24 03:05:00,
2013-05-24 13:10:00,76.1,66.8,29.96,North,7,8.0,9.0,73,0.00,OVC,,0.00,493.8,WeatherDisplay:10.37,2013-05-24 03:10:00,
2013-05-24 13:15:00,75.0,66.6,29.96,NE,34,8.0,12.0,75,0.00,OVC,,0.00,513.2,WeatherDisplay:10.37,2013-05-24 03:15:00,
2013-05-24 13:20:00,74.5,66.8,29.96,NNE,29,5.0,12.0,77,0.00,OVC,,0.00,582.3,WeatherDisplay:10.37,2013-05-24 03:20:00,
2013-05-24 13:25:00,75.2,66.7,29.97,NNE,22,6.0,9.0,75,0.00,OVC,,0.00,744.3,WeatherDisplay:10.37,2013-05-24 03:25:00,
2013-05-24 13:30:00,75.6,66.7,29.96,NE,43,6.0,8.0,74,0.00,OVC,,0.00,1348.0,WeatherDisplay:10.37,2013-05-24 03:30:00,
2013-05-24 13:35:00,77.3,67.2,29.95,NE,53,5.0,8.0,71,0.00,OVC,,0.00,808.4,WeatherDisplay:10.37,2013-05-24 03:35:00,
2013-05-24 13:40:00,77.2,66.7,29.95,NE,40,6.0,11.0,70,0.00,OVC,,0.00,1279.4,WeatherDisplay:10.37,2013-05-24 03:40:00,
2013-05-24 13:45:00,76.7,66.2,29.95,NNE,16,7.0,10.0,70,0.00,OVC,,0.00,737.8,WeatherDisplay:10.37,2013-05-24 03:45:00,
2013-05-24 13:50:00,76.5,66.8,29.95,North,0,8.0,13.0,72,0.00,OVC,,0.00,523.4,WeatherDisplay:10.37,2013-05-24 03:50:00,
2013-05-24 13:55:00,75.4,65.3,29.94,NNE,12,7.0,12.0,71,0.00,OVC,,0.00,906.1,WeatherDisplay:10.37,2013-05-24 03:55:00,
2013-05-24 14:00:00,75.6,65.9,29.94,NNE,17,6.0,12.0,72,0.00,OVC,,0.00,943.5,WeatherDisplay:10.37,2013-05-24 04:00:00,
2013-05-24 14:05:00,76.3,66.6,29.94,NNE,24,7.0,13.0,72,0.00,OVC,,0.00,1038.2,WeatherDisplay:10.37,2013-05-24 04:05:00,
2013-05-24 14:10:00,76.3,65.8,29.94,NNE,33,7.0,12.0,70,0.00,OVC,,0.00,654.8,WeatherDisplay:10.37,2013-05-24 04:10:00,
2013-05-24 14:15:00,76.5,67.2,29.94,NNE,26,9.0,13.0,73,0.00,OVC,,0.00,1078.2,WeatherDisplay:10.37,2013-05-24 04:15:00,
2013-05-24 14:20:00,75.7,66.1,29.94,NNE,24,8.0,14.0,72,0.00,OVC,,0.00,1032.2,WeatherDisplay:10.37,2013-05-24 04:20:00,
2013-05-24 14:25:00,76.2,66.6,29.94,NNE,33,6.0,12.0,72,0.00,OVC,,0.00,1000.4,WeatherDisplay:10.37,2013-05-24 04:25:00,
2013-05-24 14:30:00,76.5,66.8,29.94,NE,41,8.0,11.0,72,0.00,OVC,,0.00,986.6,WeatherDisplay:10.37,2013-05-24 04:30:00,
2013-05-24 14:35:00,76.2,66.1,29.94,NE,35,6.0,12.0,71,0.00,OVC,,0.00,957.2,WeatherDisplay:10.37,2013-05-24 04:35:00,
2013-05-24 14:40:00,76.3,66.6,29.94,NE,39,5.0,12.0,72,0.00,OVC,,0.00,914.1,WeatherDisplay:10.37,2013-05-24 04:40:00,
2013-05-24 14:45:00,77.0,66.5,29.94,NE,47,6.0,11.0,70,0.00,OVC,,0.00,872.0,WeatherDisplay:10.37,2013-05-24 04:45:00,
2013-05-24 14:50:00,76.8,67.1,29.94,NE,39,7.0,12.0,72,0.00,OVC,,0.00,797.1,WeatherDisplay:10.37,2013-05-24 04:50:00,
2013-05-24 14:55:00,76.7,66.6,29.94,NE,42,6.0,12.0,71,0.00,OVC,,0.00,811.8,WeatherDisplay:10.37,2013-05-24 04:55:00,
2013-05-24 15:00:00,76.1,66.4,29.93,NE,48,7.0,10.0,72,0.00,OVC,,0.00,651.5,WeatherDisplay:10.37,2013-05-24 05:00:00,
2013-05-24 15:05:00,75.6,66.3,29.93,NNE,31,9.0,12.0,73,0.00,OVC,,0.00,767.7,WeatherDisplay:10.37,2013-05-24 05:05:00,
2013-05-24 15:10:00,75.0,66.9,29.93,North,8,8.0,12.0,76,0.00,OVC,,0.00,679.2,WeatherDisplay:10.37,2013-05-24 05:10:00,
2013-05-24 15:15:00,75.2,66.4,29.93,North,4,6.0,11.0,74,0.00,OVC,,0.00,800.8,WeatherDisplay:10.37,2013-05-24 05:15:00,
2013-05-24 15:20:00,76.5,67.2,29.93,NNE,14,8.0,11.0,73,0.00,OVC,,0.00,786.4,WeatherDisplay:10.37,2013-05-24 05:20:00,
2013-05-24 15:25:00,75.9,66.6,29.93,North,11,7.0,14.0,73,0.00,OVC,,0.00,717.3,WeatherDisplay:10.37,2013-05-24 05:25:00,
2013-05-24 15:30:00,75.7,66.5,29.93,NNE,12,9.0,13.0,73,0.00,OVC,,0.00,691.4,WeatherDisplay:10.37,2013-05-24 05:30:00,
2013-05-24 15:35:00,75.6,66.7,29.93,NE,36,7.0,13.0,74,0.00,OVC,,0.00,665.7,WeatherDisplay:10.37,2013-05-24 05:35:00,
2013-05-24 15:40:00,75.8,66.5,29.93,NE,35,8.0,13.0,73,0.00,OVC,,0.00,665.8,WeatherDisplay:10.37,2013-05-24 05:40:00,
2013-05-24 15:45:00,75.3,66.0,29.93,North,9,7.0,13.0,73,0.00,OVC,,0.00,640.7,WeatherDisplay:10.37,2013-05-24 05:45:00,
2013-05-24 15:50:00,75.4,66.1,29.93,NNE,13,6.0,11.0,73,0.00,OVC,,0.00,643.4,WeatherDisplay:10.37,2013-05-24 05:50:00,
2013-05-24 15:55:00,74.8,66.0,29.93,NNE,24,7.0,11.0,74,0.00,OVC,,0.00,647.4,WeatherDisplay:10.37,2013-05-24 05:55:00,
2013-05-24 16:00:00,74.3,65.8,29.93,NNE,18,7.0,11.0,75,0.00,CLR,,0.00,175.4,WeatherDisplay:10.37,2013-05-24 06:00:00,
2013-05-24 16:05:00,73.2,65.2,29.93,NNE,17,8.0,13.0,76,0.00,CLR,,0.00,526.9,WeatherDisplay:10.37,2013-05-24 06:05:00,
2013-05-24 16:10:00,73.6,65.5,29.93,NNE,21,8.0,14.0,76,0.00,CLR,,0.00,479.3,WeatherDisplay:10.37,2013-05-24 06:10:00,
2013-05-24 16:15:00,73.6,65.5,29.93,NNE,27,7.0,13.0,76,0.00,CLR,,0.00,374.5,WeatherDisplay:10.37,2013-05-24 06:15:00,
2013-05-24 16:20:00,73.2,65.2,29.93,NE,36,8.0,11.0,76,0.00,CLR,,0.00,438.3,WeatherDisplay:10.37,2013-05-24 06:20:00,
2013-05-24 16:25:00,73.2,64.8,29.94,NE,36,7.0,11.0,75,0.00,CLR,,0.00,448.2,WeatherDisplay:10.37,2013-05-24 06:25:00,
2013-05-24 16:30:00,73.2,65.2,29.94,NE,39,6.0,10.0,76,0.00,CLR,,0.00,376.8,WeatherDisplay:10.37,2013-05-24 06:30:00,
2013-05-24 16:35:00,72.7,63.9,29.94,ENE,63,6.0,12.0,74,0.00,CLR,,0.00,107.9,WeatherDisplay:10.37,2013-05-24 06:35:00,
2013-05-24 16:40:00,71.7,63.4,29.94,ENE,77,8.0,12.0,75,0.00,CLR,,0.00,326.3,WeatherDisplay:10.37,2013-05-24 06:40:00,
2013-05-24 16:45:00,71.9,63.9,29.94,ENE,60,7.0,11.0,76,0.00,CLR,,0.00,271.6,WeatherDisplay:10.37,2013-05-24 06:45:00,
2013-05-24 16:50:00,71.4,63.4,29.95,ENE,68,6.0,13.0,76,0.00,CLR,,0.00,122.7,WeatherDisplay:10.37,2013-05-24 06:50:00,
2013-05-24 16:55:00,70.6,63.4,29.95,East,79,7.0,10.0,78,0.00,CLR,,0.00,125.3,WeatherDisplay:10.37,2013-05-24 06:55:00,
2013-05-24 17:00:00,70.1,63.7,29.95,ENE,71,6.0,9.0,80,0.00,CLR,,0.00,68.4,WeatherDisplay:10.37,2013-05-24 07:00:00,
2013-05-24 17:05:00,69.6,63.9,29.95,ENE,63,5.0,8.0,82,0.00,CLR,,0.00,72.5,WeatherDisplay:10.37,2013-05-24 07:05:00,
2013-05-24 17:10:00,69.6,64.2,29.95,ENE,77,3.0,8.0,83,0.00,CLR,,0.00,53.1,WeatherDisplay:10.37,2013-05-24 07:10:00,
2013-05-24 17:15:00,69.4,64.0,29.95,East,90,5.0,8.0,83,0.00,CLR,,0.00,37.4,WeatherDisplay:10.37,2013-05-24 07:15:00,
2013-05-24 17:20:00,69.4,64.0,29.96,East,90,5.0,8.0,83,0.00,CLR,,0.00,21.5,WeatherDisplay:10.37,2013-05-24 07:20:00,
2013-05-24 17:25:00,69.3,63.9,29.96,East,94,3.0,7.0,83,0.00,CLR,,0.00,18.5,WeatherDisplay:10.37,2013-05-24 07:25:00,
2013-05-24 17:30:00,68.9,63.2,29.96,East,94,3.0,8.0,82,0.00,CLR,,0.00,17.9,WeatherDisplay:10.37,2013-05-24 07:30:00,
2013-05-24 17:35:00,68.6,63.2,29.97,East,91,2.0,7.0,83,0.00,CLR,,0.00,10.8,WeatherDisplay:10.37,2013-05-24 07:35:00,
2013-05-24 17:40:00,68.4,63.0,29.97,East,80,5.0,9.0,83,0.00,CLR,,0.00,8.4,WeatherDisplay:10.37,2013-05-24 07:40:00,
2013-05-24 17:45:00,68.2,62.8,29.97,East,84,5.0,8.0,83,0.00,CLR,,0.00,6.0,WeatherDisplay:10.37,2013-05-24 07:45:00,
2013-05-24 17:50:00,68.0,62.6,29.97,East,90,6.0,8.0,83,0.00,CLR,,0.00,2.5,WeatherDisplay:10.37,2013-05-24 07:50:00,
2013-05-24 18:00:00,67.6,62.6,29.97,East,90,3.0,7.0,84,0.00,CLR,,0.00,0.0,WeatherDisplay:10.37,2013-05-24 08:00:00,
2013-05-24 18:05:00,67.5,62.9,29.97,East,90,3.0,7.0,85,0.00,CLR,,0.00,0.0,WeatherDisplay:10.37,2013-05-24 08:05:00,
2013-05-24 18:10:00,67.6,62.9,29.98,East,83,3.0,8.0,85,0.00,CLR,,0.00,0.0,WeatherDisplay:10.37,2013-05-24 08:10:00,
2013-05-24 18:15:00,67.3,62.6,29.98,ENE,67,5.0,8.0,85,0.00,CLR,,0.00,0.0,WeatherDisplay:10.37,2013-05-24 08:15:00,
2013-05-24 18:20:00,67.1,62.4,29.98,NE,50,3.0,7.0,85,0.00,CLR,,0.00,0.0,WeatherDisplay:10.37,2013-05-24 08:20:00,
2013-05-24 18:25:00,67.1,62.4,29.98,NE,43,5.0,7.0,85,0.00,CLR,,0.00,0.0,WeatherDisplay:10.37,2013-05-24 08:25:00,
2013-05-24 18:30:00,67.2,62.5,29.98,ENE,67,2.0,6.0,85,0.00,CLR,,0.00,0.0,WeatherDisplay:10.37,2013-05-24 08:30:00,
2013-05-24 18:35:00,66.9,62.3,29.98,East,89,2.0,6.0,85,0.00,CLR,,0.00,0.0,WeatherDisplay:10.37,2013-05-24 08:35:00,
2013-05-24 18:40:00,66.7,62.1,29.98,East,90,3.0,7.0,85,0.00,CLR,,0.00,0.0,WeatherDisplay:10.37,2013-05-24 08:40:00,
2013-05-24 18:45:00,66.8,62.5,29.99,East,90,3.0,6.0,86,0.00,CLR,,0.00,0.0,WeatherDisplay:10.37,2013-05-24 08:45:00,
2013-05-24 18:55:00,66.6,61.9,29.99,East,90,5.0,6.0,85,0.00,CLR,,0.00,0.0,WeatherDisplay:10.37,2013-05-24 08:55:00,
2013-05-24 19:00:00,66.4,61.7,29.99,ENE,72,5.0,7.0,85,0.00,CLR,,0.00,0.0,WeatherDisplay:10.37,2013-05-24 09:00:00,
2013-05-24 19:05:00,66.4,61.7,30.00,ENE,74,3.0,6.0,85,0.00,CLR,,0.00,0.0,WeatherDisplay:10.37,2013-05-24 09:05:00,
2013-05-24 19:10:00,66.4,61.7,30.00,East,90,3.0,6.0,85,0.00,CLR,,0.00,0.0,WeatherDisplay:10.37,2013-05-24 09:10:00,
2013-05-24 19:15:00,66.4,61.7,30.00,East,90,2.0,6.0,85,0.00,CLR,,0.00,0.0,WeatherDisplay:10.37,2013-05-24 09:15:00,
2013-05-24 19:20:00,66.2,61.6,30.00,East,90,3.0,5.0,85,0.00,CLR,,0.00,0.0,WeatherDisplay:10.37,2013-05-24 09:20:00,
2013-05-24 19:25:00,66.0,61.7,30.01,East,90,1.0,5.0,86,0.00,CLR,,0.00,0.0,WeatherDisplay:10.37,2013-05-24 09:25:00,
2013-05-24 19:30:00,66.1,61.2,30.01,East,90,2.0,6.0,84,0.00,CLR,,0.00,0.0,WeatherDisplay:10.37,2013-05-24 09:30:00,
2013-05-24 19:35:00,66.0,61.7,30.01,East,90,3.0,6.0,86,0.00,CLR,,0.00,0.0,WeatherDisplay:10.37,2013-05-24 09:35:00,
2013-05-24 19:40:00,66.0,61.7,30.01,East,90,1.0,4.0,86,0.00,CLR,,0.00,0.0,WeatherDisplay:10.37,2013-05-24 09:40:00,
2013-05-24 19:45:00,66.0,61.7,30.01,East,90,2.0,4.0,86,0.00,CLR,,0.00,0.0,WeatherDisplay:10.37,2013-05-24 09:45:00,
2013-05-24 19:50:00,66.0,61.7,30.02,ESE,117,2.0,4.0,86,0.00,CLR,,0.00,0.0,WeatherDisplay:10.37,2013-05-24 09:50:00,
2013-05-24 19:55:00,66.3,61.6,30.02,SE,133,0.0,3.0,85,0.00,CLR,,0.00,0.0,WeatherDisplay:10.37,2013-05-24 09:55:00,
2013-05-24 20:00:00,66.4,61.7,30.02,SE,135,0.0,1.0,85,0.00,CLR,,0.00,0.0,WeatherDisplay:10.37,2013-05-24 10:00:00,
2013-05-24 20:05:00,66.2,61.6,30.02,SE,135,0.0,0.0,85,0.00,CLR,,0.00,0.0,WeatherDisplay:10.37,2013-05-24 10:05:00,
2013-05-24 20:10:00,66.6,61.9,30.03,SE,135,0.0,0.0,85,0.00,CLR,,0.00,0.0,WeatherDisplay:10.37,2013-05-24 10:10:00,
2013-05-24 20:15:00,66.0,62.0,30.03,SE,135,0.0,0.0,87,0.00,CLR,,0.00,0.0,WeatherDisplay:10.37,2013-05-24 10:15:00,
2013-05-24 20:20:00,65.8,61.9,30.03,SE,135,0.0,0.0,87,0.00,CLR,,0.00,0.0,WeatherDisplay:10.37,2013-05-24 10:20:00,
2013-05-24 20:25:00,65.7,62.0,30.03,SE,135,0.0,1.0,88,0.00,CLR,,0.00,0.0,WeatherDisplay:10.37,2013-05-24 10:25:00,
2013-05-24 20:30:00,65.6,61.9,30.03,SE,135,1.0,2.0,88,0.00,CLR,,0.00,0.0,WeatherDisplay:10.37,2013-05-24 10:30:00,
2013-05-24 20:35:00,65.1,61.8,30.02,ESE,121,1.0,3.0,89,0.00,CLR,,0.00,0.0,WeatherDisplay:10.37,2013-05-24 10:35:00,
2013-05-24 20:40:00,65.1,61.8,30.03,NNE,15,1.0,3.0,89,0.00,CLR,,0.00,0.0,WeatherDisplay:10.37,2013-05-24 10:40:00,
2013-05-24 20:45:00,65.2,61.8,30.03,North,0,0.0,2.0,89,0.00,CLR,,0.00,0.0,WeatherDisplay:10.37,2013-05-24 10:45:00,
2013-05-24 20:50:00,65.0,61.3,30.03,North,0,0.0,1.0,88,0.00,CLR,,0.00,0.0,WeatherDisplay:10.37,2013-05-24 10:50:00,
2013-05-24 20:55:00,64.6,60.9,30.03,North,0,0.0,0.0,88,0.00,CLR,,0.00,0.0,WeatherDisplay:10.37,2013-05-24 10:55:00,
2013-05-24 21:00:00,64.4,61.1,30.03,North,0,0.0,0.0,89,0.00,CLR,,0.00,0.0,WeatherDisplay:10.37,2013-05-24 11:00:00,
2013-05-24 21:05:00,64.4,61.1,30.03,North,0,0.0,2.0,89,0.00,CLR,,0.00,0.0,WeatherDisplay:10.37,2013-05-24 11:05:00,
2013-05-24 21:10:00,64.3,61.3,30.03,North,0,0.0,2.0,90,0.00,CLR,,0.00,0.0,WeatherDisplay:10.37,2013-05-24 11:10:00,
2013-05-24 21:15:00,63.4,60.4,30.03,North,0,0.0,1.0,90,0.00,CLR,,0.00,0.0,WeatherDisplay:10.37,2013-05-24 11:15:00,
2013-05-24 21:20:00,62.8,60.1,30.03,North,0,0.0,2.0,91,0.00,CLR,,0.00,0.0,WeatherDisplay:10.37,2013-05-24 11:20:00,
2013-05-24 21:25:00,62.8,60.1,30.04,North,0,1.0,2.0,91,0.00,CLR,,0.00,0.0,WeatherDisplay:10.37,2013-05-24 11:25:00,
2013-05-24 21:30:00,62.5,60.1,30.03,North,0,0.0,1.0,92,0.00,CLR,,0.00,0.0,WeatherDisplay:10.37,2013-05-24 11:30:00,
2013-05-24 21:35:00,62.4,59.8,30.03,North,0,0.0,2.0,91,0.00,CLR,,0.00,0.0,WeatherDisplay:10.37,2013-05-24 11:35:00,
2013-05-24 21:40:00,62.2,59.3,30.04,NNW,347,2.0,5.0,90,0.00,CLR,,0.00,0.0,WeatherDisplay:10.37,2013-05-24 11:40:00,
2013-05-24 21:45:00,62.3,59.0,30.04,ENE,58,1.0,5.0,89,0.00,CLR,,0.00,0.0,WeatherDisplay:10.37,2013-05-24 11:45:00,
2013-05-24 21:50:00,62.4,58.8,30.04,East,99,1.0,2.0,88,0.00,CLR,,0.00,0.0,WeatherDisplay:10.37,2013-05-24 11:50:00,
2013-05-24 21:55:00,62.1,58.8,30.04,East,90,0.0,2.0,89,0.00,CLR,,0.00,0.0,WeatherDisplay:10.37,2013-05-24 11:55:00,
2013-05-24 22:00:00,62.1,59.1,30.04,East,90,1.0,3.0,90,0.00,CLR,,0.00,0.0,WeatherDisplay:10.37,2013-05-24 12:00:00,
2013-05-24 22:05:00,61.7,58.7,30.04,East,90,0.0,2.0,90,0.00,CLR,,0.00,0.0,WeatherDisplay:10.37,2013-05-24 12:05:00,
2013-05-24 22:10:00,61.4,58.5,30.04,East,90,0.0,0.0,90,0.00,CLR,,0.00,0.0,WeatherDisplay:10.37,2013-05-24 12:10:00,
2013-05-24 22:15:00,61.0,58.3,30.04,East,90,1.0,3.0,91,0.00,CLR,,0.00,0.0,WeatherDisplay:10.37,2013-05-24 12:15:00,
2013-05-24 22:20:00,60.6,58.6,30.04,East,90,0.0,2.0,93,0.00,CLR,,0.00,0.0,WeatherDisplay:10.37,2013-05-24 12:20:00,
2013-05-24 22:25:00,60.4,58.4,30.04,East,97,1.0,2.0,93,0.00,CLR,,0.00,0.0,WeatherDisplay:10.37,2013-05-24 12:25:00,
2013-05-24 22:30:00,60.3,58.6,30.04,ESE,121,0.0,2.0,94,0.00,CLR,,0.00,0.0,WeatherDisplay:10.37,2013-05-24 12:30:00,
2013-05-24 22:35:00,59.9,58.2,30.04,SE,135,0.0,0.0,94,0.00,CLR,,0.00,0.0,WeatherDisplay:10.37,2013-05-24 12:35:00,
2013-05-24 22:40:00,59.5,57.8,30.04,SE,135,0.0,0.0,94,0.00,CLR,,0.00,0.0,WeatherDisplay:10.37,2013-05-24 12:40:00,
2013-05-24 22:45:00,59.4,57.9,30.04,SE,135,0.0,0.0,95,0.00,CLR,,0.00,0.0,WeatherDisplay:10.37,2013-05-24 12:45:00,
2013-05-24 22:50:00,59.1,57.7,30.04,SE,135,0.0,0.0,95,0.00,CLR,,0.00,0.0,WeatherDisplay:10.37,2013-05-24 12:50:00,
2013-05-24 22:55:00,58.7,57.6,30.04,SE,135,0.0,0.0,96,0.00,CLR,,0.00,0.0,WeatherDisplay:10.37,2013-05-24 12:55:00,
2013-05-24 23:00:00,58.5,57.3,30.05,SE,135,0.0,0.0,96,0.00,CLR,,0.00,0.0,WeatherDisplay:10.37,2013-05-24 13:00:00,
2013-05-24 23:05:00,58.1,57.0,30.04,SE,135,0.0,1.0,96,0.00,CLR,,0.00,0.0,WeatherDisplay:10.37,2013-05-24 13:05:00,
2013-05-24 23:10:00,58.3,57.1,30.04,SE,135,0.0,1.0,96,0.00,CLR,,0.00,0.0,WeatherDisplay:10.37,2013-05-24 13:10:00,
2013-05-24 23:15:00,58.3,57.1,30.04,SE,135,0.0,0.0,96,0.00,CLR,,0.00,0.0,WeatherDisplay:10.37,2013-05-24 13:15:00,
2013-05-24 23:20:00,58.1,57.0,30.05,SE,135,0.0,0.0,96,0.00,CLR,,0.00,0.0,WeatherDisplay:10.37,2013-05-24 13:20:00,
2013-05-24 23:25:00,57.9,56.8,30.05,SE,135,0.0,0.0,96,0.00,CLR,,0.00,0.0,WeatherDisplay:10.37,2013-05-24 13:25:00,
2013-05-24 23:30:00,57.9,56.8,30.04,ESE,121,1.0,2.0,96,0.00,CLR,,0.00,0.0,WeatherDisplay:10.37,2013-05-24 13:30:00,
2013-05-24 23:35:00,58.1,57.3,30.05,East,96,1.0,3.0,97,0.00,CLR,,0.00,0.0,WeatherDisplay:10.37,2013-05-24 13:35:00,
2013-05-24 23:40:00,57.7,56.9,30.05,East,90,0.0,2.0,97,0.00,CLR,,0.00,0.0,WeatherDisplay:10.37,2013-05-24 13:40:00,
2013-05-24 23:45:00,57.4,56.5,30.04,East,90,0.0,0.0,97,0.00,CLR,,0.00,0.0,WeatherDisplay:10.37,2013-05-24 13:45:00,
2013-05-24 23:50:00,57.2,56.4,30.04,East,90,0.0,0.0,97,0.00,CLR,,0.00,0.0,WeatherDisplay:10.37,2013-05-24 13:50:00,
2013-05-24 23:55:00,57.0,56.7,30.04,East,90,0.0,0.0,99,0.00,CLR,,0.00,0.0,WeatherDisplay:10.37,2013-05-24 13:55:00,